LIEO/OLB METAR and TAF weather

Enter ICAO airport designator
Station Type Date Time Source
LIEO METAR 2021/05/17 22:20 UTC NOAA

LIEO 172220Z 26014KT CAVOK 16/08 Q1016


Station Type Date Time Source
LIEO Decoded METAR 2021/05/17 22:20 UTC NOAA

Olbia / Costa Smeralda, Italy (LIEO) 40-54N 009-31E 13M
May 17, 2021 - 06:20 PM EDT / 2021.05.17 2220 UTC
Wind: from the W (260 degrees) at 16 MPH (14 KT):0
Visibility: greater than 7 mile(s):0
Temperature: 60 F (16 C)
Dew Point: 46 F (8 C)
Relative Humidity: 58%
Pressure (altimeter): 30.00 in. Hg (1016 hPa)
ob: LIEO 172220Z 26014KT CAVOK 16/08 Q1016
cycle: 22

Station Type Date Time Source
LIEO TAF 2021/05/17 18:21 UTC NOAA

TAF LIEO 171700Z 1718/1818 24015KT CAVOK
BECMG 1806/1808 28022G34KT
BECMG 1816/1818 27014KT

Example: see airport list